sensor_id;sensor_type;location;lat;lon;timestamp;temperature;humidity
2611;DHT22;5612;51.134;17.058;2023-06-05T00:02:08;13.90;1.00
2611;DHT22;5612;51.134;17.058;2023-06-05T00:04:37;13.90;1.00
2611;DHT22;5612;51.134;17.058;2023-06-05T00:07:07;13.90;1.00
2611;DHT22;5612;51.134;17.058;2023-06-05T00:09:35;13.80;1.00
2611;DHT22;5612;51.134;17.058;2023-06-05T00:12:07;13.70;1.00
2611;DHT22;5612;51.134;17.058;2023-06-05T00:14:36;13.70;1.00
2611;DHT22;5612;51.134;17.058;2023-06-05T00:17:05;13.70;1.00
2611;DHT22;5612;51.134;17.058;2023-06-05T00:19:36;13.70;1.00
2611;DHT22;5612;51.134;17.058;2023-06-05T00:22:05;13.70;1.00
2611;DHT22;5612;51.134;17.058;2023-06-05T00:24:34;13.60;1.00
2611;DHT22;5612;51.134;17.058;2023-06-05T00:27:03;13.50;1.00
2611;DHT22;5612;51.134;17.058;2023-06-05T00:29:33;13.50;1.00
2611;DHT22;5612;51.134;17.058;2023-06-05T00:32:02;13.50;1.00
2611;DHT22;5612;51.134;17.058;2023-06-05T00:34:31;13.50;1.00
2611;DHT22;5612;51.134;17.058;2023-06-05T00:37:00;13.40;1.00
2611;DHT22;5612;51.134;17.058;2023-06-05T00:39:29;13.40;1.00
2611;DHT22;5612;51.134;17.058;2023-06-05T00:41:57;13.30;1.00
2611;DHT22;5612;51.134;17.058;2023-06-05T00:44:26;13.20;1.00
2611;DHT22;5612;51.134;17.058;2023-06-05T00:46:57;13.20;1.00
2611;DHT22;5612;51.134;17.058;2023-06-05T00:49:27;13.20;1.00
2611;DHT22;5612;51.134;17.058;2023-06-05T00:51:56;13.20;1.00
2611;DHT22;5612;51.134;17.058;2023-06-05T00:54:26;13.20;1.00
2611;DHT22;5612;51.134;17.058;2023-06-05T00:56:55;13.10;1.00
2611;DHT22;5612;51.134;17.058;2023-06-05T00:59:24;13.10;1.00
2611;DHT22;5612;51.134;17.058;2023-06-05T01:01:53;13.10;1.00
2611;DHT22;5612;51.134;17.058;2023-06-05T01:04:24;13.10;1.00
2611;DHT22;5612;51.134;17.058;2023-06-05T01:06:53;13.10;1.00
2611;DHT22;5612;51.134;17.058;2023-06-05T01:09:24;13.00;1.00
2611;DHT22;5612;51.134;17.058;2023-06-05T01:11:58;13.00;1.00
2611;DHT22;5612;51.134;17.058;2023-06-05T01:14:31;12.90;1.00
2611;DHT22;5612;51.134;17.058;2023-06-05T01:17:02;12.80;1.00
2611;DHT22;5612;51.134;17.058;2023-06-05T01:19:33;12.80;1.00
2611;DHT22;5612;51.134;17.058;2023-06-05T01:22:03;12.80;1.00
2611;DHT22;5612;51.134;17.058;2023-06-05T01:24:34;12.80;1.00
2611;DHT22;5612;51.134;17.058;2023-06-05T01:27:10;12.80;1.00
2611;DHT22;5612;51.134;17.058;2023-06-05T01:29:50;12.70;1.00
2611;DHT22;5612;51.134;17.058;2023-06-05T01:32:25;12.70;1.00
2611;DHT22;5612;51.134;17.058;2023-06-05T01:34:57;12.70;1.00
2611;DHT22;5612;51.134;17.058;2023-06-05T01:37:27;12.70;1.00
2611;DHT22;5612;51.134;17.058;2023-06-05T01:40:07;12.60;1.00
2611;DHT22;5612;51.134;17.058;2023-06-05T01:42:37;12.60;1.00
2611;DHT22;5612;51.134;17.058;2023-06-05T01:45:08;12.60;1.00
2611;DHT22;5612;51.134;17.058;2023-06-05T01:47:37;12.50;1.00
2611;DHT22;5612;51.134;17.058;2023-06-05T01:50:08;12.50;1.00
2611;DHT22;5612;51.134;17.058;2023-06-05T01:52:40;12.50;1.00
2611;DHT22;5612;51.134;17.058;2023-06-05T01:55:16;12.50;1.00
2611;DHT22;5612;51.134;17.058;2023-06-05T01:57:47;12.40;1.00
2611;DHT22;5612;51.134;17.058;2023-06-05T02:00:16;12.40;1.00
2611;DHT22;5612;51.134;17.058;2023-06-05T02:02:46;12.40;1.00
2611;DHT22;5612;51.134;17.058;2023-06-05T02:05:17;12.40;1.00
2611;DHT22;5612;51.134;17.058;2023-06-05T02:07:48;12.40;1.00
2611;DHT22;5612;51.134;17.058;2023-06-05T02:10:23;12.30;1.00
2611;DHT22;5612;51.134;17.058;2023-06-05T02:12:51;12.30;1.00
2611;DHT22;5612;51.134;17.058;2023-06-05T02:15:20;12.30;1.00
2611;DHT22;5612;51.134;17.058;2023-06-05T02:17:50;12.30;1.00
2611;DHT22;5612;51.134;17.058;2023-06-05T02:20:24;12.30;1.00
2611;DHT22;5612;51.134;17.058;2023-06-05T02:22:53;12.20;1.00
2611;DHT22;5612;51.134;17.058;2023-06-05T02:25:24;12.20;1.00
2611;DHT22;5612;51.134;17.058;2023-06-05T02:27:54;12.20;1.00
2611;DHT22;5612;51.134;17.058;2023-06-05T02:30:23;12.10;1.00
2611;DHT22;5612;51.134;17.058;2023-06-05T02:32:53;12.20;1.00
2611;DHT22;5612;51.134;17.058;2023-06-05T02:35:24;12.10;1.00
2611;DHT22;5612;51.134;17.058;2023-06-05T02:37:53;12.10;1.00
2611;DHT22;5612;51.134;17.058;2023-06-05T02:40:25;12.00;1.00
2611;DHT22;5612;51.134;17.058;2023-06-05T02:42:54;12.10;1.00
2611;DHT22;5612;51.134;17.058;2023-06-05T02:45:22;12.10;1.00
2611;DHT22;5612;51.134;17.058;2023-06-05T02:47:51;12.10;1.00
2611;DHT22;5612;51.134;17.058;2023-06-05T02:50:20;12.10;1.00
2611;DHT22;5612;51.134;17.058;2023-06-05T02:52:49;12.00;1.00
2611;DHT22;5612;51.134;17.058;2023-06-05T02:55:18;12.00;1.00
2611;DHT22;5612;51.134;17.058;2023-06-05T02:57:48;12.00;1.00
2611;DHT22;5612;51.134;17.058;2023-06-05T03:00:17;12.10;1.00
2611;DHT22;5612;51.134;17.058;2023-06-05T03:02:46;12.10;1.00
2611;DHT22;5612;51.134;17.058;2023-06-05T03:05:17;12.10;1.00
2611;DHT22;5612;51.134;17.058;2023-06-05T03:07:53;12.10;1.00
2611;DHT22;5612;51.134;17.058;2023-06-05T03:10:22;12.10;1.00
2611;DHT22;5612;51.134;17.058;2023-06-05T03:12:52;12.10;1.00
2611;DHT22;5612;51.134;17.058;2023-06-05T03:15:21;12.10;1.00
2611;DHT22;5612;51.134;17.058;2023-06-05T03:17:50;12.00;1.00
2611;DHT22;5612;51.134;17.058;2023-06-05T03:20:19;12.00;1.00
2611;DHT22;5612;51.134;17.058;2023-06-05T03:22:49;12.10;1.00
2611;DHT22;5612;51.134;17.058;2023-06-05T03:25:18;12.10;1.00
2611;DHT22;5612;51.134;17.058;2023-06-05T03:27:49;12.10;1.00
2611;DHT22;5612;51.134;17.058;2023-06-05T03:30:19;12.20;1.00
2611;DHT22;5612;51.134;17.058;2023-06-05T03:32:48;12.20;1.00
2611;DHT22;5612;51.134;17.058;2023-06-05T03:35:17;12.20;1.00
2611;DHT22;5612;51.134;17.058;2023-06-05T03:37:46;12.20;1.00
2611;DHT22;5612;51.134;17.058;2023-06-05T03:40:14;12.20;1.00
2611;DHT22;5612;51.134;17.058;2023-06-05T03:42:43;12.20;1.00
2611;DHT22;5612;51.134;17.058;2023-06-05T03:45:12;12.30;1.00
2611;DHT22;5612;51.134;17.058;2023-06-05T03:47:44;12.40;1.00
2611;DHT22;5612;51.134;17.058;2023-06-05T03:50:16;12.40;1.00
2611;DHT22;5612;51.134;17.058;2023-06-05T03:52:45;12.40;1.00
2611;DHT22;5612;51.134;17.058;2023-06-05T03:55:20;12.50;1.00
2611;DHT22;5612;51.134;17.058;2023-06-05T03:57:48;12.50;1.00
2611;DHT22;5612;51.134;17.058;2023-06-05T04:00:18;12.50;1.00
2611;DHT22;5612;51.134;17.058;2023-06-05T04:02:48;12.50;1.00
2611;DHT22;5612;51.134;17.058;2023-06-05T04:05:17;12.60;1.00
2611;DHT22;5612;51.134;17.058;2023-06-05T04:07:46;12.70;1.00
2611;DHT22;5612;51.134;17.058;2023-06-05T04:10:15;12.80;1.00
2611;DHT22;5612;51.134;17.058;2023-06-05T04:12:44;12.80;1.00
2611;DHT22;5612;51.134;17.058;2023-06-05T04:15:13;12.80;1.00
2611;DHT22;5612;51.134;17.058;2023-06-05T04:17:42;12.90;1.00
2611;DHT22;5612;51.134;17.058;2023-06-05T04:20:12;13.00;1.00
2611;DHT22;5612;51.134;17.058;2023-06-05T04:22:42;13.00;1.00
2611;DHT22;5612;51.134;17.058;2023-06-05T04:25:12;13.10;1.00
2611;DHT22;5612;51.134;17.058;2023-06-05T04:27:43;13.10;1.00
2611;DHT22;5612;51.134;17.058;2023-06-05T04:30:13;13.30;1.00
2611;DHT22;5612;51.134;17.058;2023-06-05T04:32:42;13.30;1.00
2611;DHT22;5612;51.134;17.058;2023-06-05T04:35:22;13.40;1.00
2611;DHT22;5612;51.134;17.058;2023-06-05T04:37:51;13.40;1.00
2611;DHT22;5612;51.134;17.058;2023-06-05T04:40:20;13.30;1.00
2611;DHT22;5612;51.134;17.058;2023-06-05T04:42:49;13.40;1.00
2611;DHT22;5612;51.134;17.058;2023-06-05T04:45:19;13.50;1.00
2611;DHT22;5612;51.134;17.058;2023-06-05T04:47:49;13.60;1.00
2611;DHT22;5612;51.134;17.058;2023-06-05T04:50:24;13.80;1.00
2611;DHT22;5612;51.134;17.058;2023-06-05T04:52:53;13.80;1.00
2611;DHT22;5612;51.134;17.058;2023-06-05T04:55:22;13.90;1.00
2611;DHT22;5612;51.134;17.058;2023-06-05T04:57:51;14.00;1.00
2611;DHT22;5612;51.134;17.058;2023-06-05T05:00:21;14.10;1.00
2611;DHT22;5612;51.134;17.058;2023-06-05T05:02:50;14.20;1.00
2611;DHT22;5612;51.134;17.058;2023-06-05T05:05:19;14.20;1.00
2611;DHT22;5612;51.134;17.058;2023-06-05T05:07:49;14.20;1.00
2611;DHT22;5612;51.134;17.058;2023-06-05T05:10:23;14.30;1.00
2611;DHT22;5612;51.134;17.058;2023-06-05T05:12:52;14.40;1.00
2611;DHT22;5612;51.134;17.058;2023-06-05T05:15:21;14.50;1.00
2611;DHT22;5612;51.134;17.058;2023-06-05T05:17:50;14.60;1.00
2611;DHT22;5612;51.134;17.058;2023-06-05T05:20:19;14.60;1.00
2611;DHT22;5612;51.134;17.058;2023-06-05T05:22:49;14.70;1.00
2611;DHT22;5612;51.134;17.058;2023-06-05T05:25:19;14.80;1.00
2611;DHT22;5612;51.134;17.058;2023-06-05T05:27:48;14.90;1.00
2611;DHT22;5612;51.134;17.058;2023-06-05T05:30:17;15.00;1.00
2611;DHT22;5612;51.134;17.058;2023-06-05T05:32:45;15.20;1.00
2611;DHT22;5612;51.134;17.058;2023-06-05T05:35:15;15.40;1.00
2611;DHT22;5612;51.134;17.058;2023-06-05T05:37:44;15.50;1.00
2611;DHT22;5612;51.134;17.058;2023-06-05T05:40:14;15.60;1.00
2611;DHT22;5612;51.134;17.058;2023-06-05T05:42:43;15.70;1.00
2611;DHT22;5612;51.134;17.058;2023-06-05T05:45:12;15.90;1.00
2611;DHT22;5612;51.134;17.058;2023-06-05T05:47:41;16.10;1.00
2611;DHT22;5612;51.134;17.058;2023-06-05T05:50:10;16.10;1.00
2611;DHT22;5612;51.134;17.058;2023-06-05T05:52:39;16.30;1.00
2611;DHT22;5612;51.134;17.058;2023-06-05T05:55:10;16.40;1.00
2611;DHT22;5612;51.134;17.058;2023-06-05T05:57:42;16.50;1.00
2611;DHT22;5612;51.134;17.058;2023-06-05T06:00:13;16.60;1.00
2611;DHT22;5612;51.134;17.058;2023-06-05T06:02:42;16.80;1.00
2611;DHT22;5612;51.134;17.058;2023-06-05T06:05:11;17.00;1.00
2611;DHT22;5612;51.134;17.058;2023-06-05T06:07:40;17.10;1.00
2611;DHT22;5612;51.134;17.058;2023-06-05T06:10:10;17.10;1.00
2611;DHT22;5612;51.134;17.058;2023-06-05T06:12:44;17.30;1.00
2611;DHT22;5612;51.134;17.058;2023-06-05T06:15:13;17.30;1.00
2611;DHT22;5612;51.134;17.058;2023-06-05T06:17:41;17.50;1.00
2611;DHT22;5612;51.134;17.058;2023-06-05T06:20:11;17.50;1.00
2611;DHT22;5612;51.134;17.058;2023-06-05T06:22:43;17.60;1.00
2611;DHT22;5612;51.134;17.058;2023-06-05T06:25:12;17.60;1.00
2611;DHT22;5612;51.134;17.058;2023-06-05T06:27:44;17.60;1.00
2611;DHT22;5612;51.134;17.058;2023-06-05T06:30:15;17.60;1.00
2611;DHT22;5612;51.134;17.058;2023-06-05T06:32:44;17.80;1.00
2611;DHT22;5612;51.134;17.058;2023-06-05T06:35:13;17.90;1.00
2611;DHT22;5612;51.134;17.058;2023-06-05T06:37:44;18.10;1.00
2611;DHT22;5612;51.134;17.058;2023-06-05T06:40:13;18.20;1.00
2611;DHT22;5612;51.134;17.058;2023-06-05T06:42:43;18.20;1.00
2611;DHT22;5612;51.134;17.058;2023-06-05T06:45:12;18.30;1.00
2611;DHT22;5612;51.134;17.058;2023-06-05T06:47:42;18.50;1.00
2611;DHT22;5612;51.134;17.058;2023-06-05T06:50:31;18.70;1.00
2611;DHT22;5612;51.134;17.058;2023-06-05T06:53:00;18.90;1.00
2611;DHT22;5612;51.134;17.058;2023-06-05T06:55:29;19.30;1.00
2611;DHT22;5612;51.134;17.058;2023-06-05T06:58:00;19.80;1.00
2611;DHT22;5612;51.134;17.058;2023-06-05T07:00:29;20.40;1.00
2611;DHT22;5612;51.134;17.058;2023-06-05T07:02:58;21.00;1.00
2611;DHT22;5612;51.134;17.058;2023-06-05T07:05:27;21.60;1.00
2611;DHT22;5612;51.134;17.058;2023-06-05T07:07:56;22.40;1.00
2611;DHT22;5612;51.134;17.058;2023-06-05T07:10:28;23.30;1.00
2611;DHT22;5612;51.134;17.058;2023-06-05T07:12:57;24.10;99.90
2611;DHT22;5612;51.134;17.058;2023-06-05T07:15:28;25.00;99.90
2611;DHT22;5612;51.134;17.058;2023-06-05T07:17:57;25.90;99.90
2611;DHT22;5612;51.134;17.058;2023-06-05T07:20:26;27.00;99.90
2611;DHT22;5612;51.134;17.058;2023-06-05T07:22:55;27.80;99.90
2611;DHT22;5612;51.134;17.058;2023-06-05T07:25:24;28.50;99.90
2611;DHT22;5612;51.134;17.058;2023-06-05T07:27:53;29.10;99.90
2611;DHT22;5612;51.134;17.058;2023-06-05T07:30:22;29.40;99.90
2611;DHT22;5612;51.134;17.058;2023-06-05T07:32:52;29.30;99.90
2611;DHT22;5612;51.134;17.058;2023-06-05T07:35:22;29.70;99.90
2611;DHT22;5612;51.134;17.058;2023-06-05T07:37:52;30.20;99.90
2611;DHT22;5612;51.134;17.058;2023-06-05T07:40:21;30.70;99.90
2611;DHT22;5612;51.134;17.058;2023-06-05T07:42:50;31.30;99.90
2611;DHT22;5612;51.134;17.058;2023-06-05T07:45:19;31.10;99.90
2611;DHT22;5612;51.134;17.058;2023-06-05T07:47:48;31.20;99.90
2611;DHT22;5612;51.134;17.058;2023-06-05T07:50:19;31.30;99.90
2611;DHT22;5612;51.134;17.058;2023-06-05T07:52:48;31.30;99.90
2611;DHT22;5612;51.134;17.058;2023-06-05T07:55:17;30.90;99.90
2611;DHT22;5612;51.134;17.058;2023-06-05T07:57:46;31.60;99.90
2611;DHT22;5612;51.134;17.058;2023-06-05T08:00:18;32.40;99.90
2611;DHT22;5612;51.134;17.058;2023-06-05T08:02:47;32.90;99.90
2611;DHT22;5612;51.134;17.058;2023-06-05T08:05:18;33.10;99.90
2611;DHT22;5612;51.134;17.058;2023-06-05T08:07:49;32.40;99.90
2611;DHT22;5612;51.134;17.058;2023-06-05T08:10:22;32.20;99.90
2611;DHT22;5612;51.134;17.058;2023-06-05T08:12:56;32.00;99.90
2611;DHT22;5612;51.134;17.058;2023-06-05T08:15:35;32.90;99.90
2611;DHT22;5612;51.134;17.058;2023-06-05T08:18:20;33.20;99.90
2611;DHT22;5612;51.134;17.058;2023-06-05T08:21:00;33.70;99.90
2611;DHT22;5612;51.134;17.058;2023-06-05T08:23:40;33.80;99.90
2611;DHT22;5612;51.134;17.058;2023-06-05T08:26:10;34.90;99.90
2611;DHT22;5612;51.134;17.058;2023-06-05T08:28:41;36.20;1.00
2611;DHT22;5612;51.134;17.058;2023-06-05T08:31:10;37.10;1.00
2611;DHT22;5612;51.134;17.058;2023-06-05T08:33:41;37.20;1.00
2611;DHT22;5612;51.134;17.058;2023-06-05T08:36:11;37.30;1.00
2611;DHT22;5612;51.134;17.058;2023-06-05T08:38:40;37.70;1.00
2611;DHT22;5612;51.134;17.058;2023-06-05T08:41:12;37.70;1.00
2611;DHT22;5612;51.134;17.058;2023-06-05T08:43:43;36.90;1.00
2611;DHT22;5612;51.134;17.058;2023-06-05T08:46:13;36.70;1.00
2611;DHT22;5612;51.134;17.058;2023-06-05T08:48:44;36.80;1.00
2611;DHT22;5612;51.134;17.058;2023-06-05T08:51:16;37.90;1.00
2611;DHT22;5612;51.134;17.058;2023-06-05T08:53:49;38.90;1.00
2611;DHT22;5612;51.134;17.058;2023-06-05T08:56:18;39.40;1.00
2611;DHT22;5612;51.134;17.058;2023-06-05T08:58:48;40.30;1.00
2611;DHT22;5612;51.134;17.058;2023-06-05T09:01:20;40.10;1.00
2611;DHT22;5612;51.134;17.058;2023-06-05T09:03:49;40.60;1.00
2611;DHT22;5612;51.134;17.058;2023-06-05T09:06:19;40.90;1.00
2611;DHT22;5612;51.134;17.058;2023-06-05T09:08:48;41.10;1.00
2611;DHT22;5612;51.134;17.058;2023-06-05T09:11:22;41.20;1.00
2611;DHT22;5612;51.134;17.058;2023-06-05T09:13:51;41.80;1.00
2611;DHT22;5612;51.134;17.058;2023-06-05T09:16:33;41.80;1.00
2611;DHT22;5612;51.134;17.058;2023-06-05T09:19:06;42.10;1.00
2611;DHT22;5612;51.134;17.058;2023-06-05T09:21:38;41.60;1.00
2611;DHT22;5612;51.134;17.058;2023-06-05T09:24:14;42.50;1.00
2611;DHT22;5612;51.134;17.058;2023-06-05T09:26:56;42.60;1.00
2611;DHT22;5612;51.134;17.058;2023-06-05T09:29:26;42.70;1.00
2611;DHT22;5612;51.134;17.058;2023-06-05T09:31:57;42.20;1.00
2611;DHT22;5612;51.134;17.058;2023-06-05T09:34:28;41.60;1.00
2611;DHT22;5612;51.134;17.058;2023-06-05T09:37:00;41.60;1.00
2611;DHT22;5612;51.134;17.058;2023-06-05T09:39:31;42.60;1.00
2611;DHT22;5612;51.134;17.058;2023-06-05T09:42:00;42.60;1.00
2611;DHT22;5612;51.134;17.058;2023-06-05T09:44:30;42.70;1.00
2611;DHT22;5612;51.134;17.058;2023-06-05T09:47:01;42.60;1.00
2611;DHT22;5612;51.134;17.058;2023-06-05T09:49:46;44.00;1.00
2611;DHT22;5612;51.134;17.058;2023-06-05T09:52:19;43.60;1.00
2611;DHT22;5612;51.134;17.058;2023-06-05T09:54:50;44.20;1.00
2611;DHT22;5612;51.134;17.058;2023-06-05T09:57:23;44.20;1.00
2611;DHT22;5612;51.134;17.058;2023-06-05T09:59:55;44.50;1.00
2611;DHT22;5612;51.134;17.058;2023-06-05T10:02:33;45.10;1.00
2611;DHT22;5612;51.134;17.058;2023-06-05T10:05:04;45.10;1.00
2611;DHT22;5612;51.134;17.058;2023-06-05T10:07:37;44.30;1.00
2611;DHT22;5612;51.134;17.058;2023-06-05T10:10:09;43.60;1.00
2611;DHT22;5612;51.134;17.058;2023-06-05T10:12:39;42.10;1.00
2611;DHT22;5612;51.134;17.058;2023-06-05T10:15:11;41.50;1.00
2611;DHT22;5612;51.134;17.058;2023-06-05T10:17:41;42.20;1.00
2611;DHT22;5612;51.134;17.058;2023-06-05T10:20:12;42.70;1.00
2611;DHT22;5612;51.134;17.058;2023-06-05T10:22:46;43.40;1.00
2611;DHT22;5612;51.134;17.058;2023-06-05T10:25:18;43.80;1.00
2611;DHT22;5612;51.134;17.058;2023-06-05T10:27:58;45.10;1.00
2611;DHT22;5612;51.134;17.058;2023-06-05T10:30:51;45.10;1.00
2611;DHT22;5612;51.134;17.058;2023-06-05T10:33:36;44.40;1.00
2611;DHT22;5612;51.134;17.058;2023-06-05T10:36:24;44.00;1.00
2611;DHT22;5612;51.134;17.058;2023-06-05T10:38:58;44.10;1.00
2611;DHT22;5612;51.134;17.058;2023-06-05T10:41:27;44.70;1.00
2611;DHT22;5612;51.134;17.058;2023-06-05T10:43:57;43.70;1.00
2611;DHT22;5612;51.134;17.058;2023-06-05T10:46:31;43.70;1.00
2611;DHT22;5612;51.134;17.058;2023-06-05T10:49:09;43.80;1.00
2611;DHT22;5612;51.134;17.058;2023-06-05T10:51:41;44.00;1.00
2611;DHT22;5612;51.134;17.058;2023-06-05T10:54:13;44.70;1.00
2611;DHT22;5612;51.134;17.058;2023-06-05T10:57:01;45.00;1.00
2611;DHT22;5612;51.134;17.058;2023-06-05T10:59:34;45.60;1.00
2611;DHT22;5612;51.134;17.058;2023-06-05T11:02:23;45.90;1.00
2611;DHT22;5612;51.134;17.058;2023-06-05T11:05:07;46.00;1.00
2611;DHT22;5612;51.134;17.058;2023-06-05T11:07:38;45.80;1.00
2611;DHT22;5612;51.134;17.058;2023-06-05T11:10:11;45.40;1.00
2611;DHT22;5612;51.134;17.058;2023-06-05T11:12:59;46.20;1.00
2611;DHT22;5612;51.134;17.058;2023-06-05T11:15:43;47.80;1.00
2611;DHT22;5612;51.134;17.058;2023-06-05T11:18:32;47.40;1.00
2611;DHT22;5612;51.134;17.058;2023-06-05T11:21:02;46.90;1.00
2611;DHT22;5612;51.134;17.058;2023-06-05T11:23:31;46.30;1.00
2611;DHT22;5612;51.134;17.058;2023-06-05T11:26:40;45.80;1.00
2611;DHT22;5612;51.134;17.058;2023-06-05T11:29:13;46.30;1.00
2611;DHT22;5612;51.134;17.058;2023-06-05T11:31:44;45.50;1.00
2611;DHT22;5612;51.134;17.058;2023-06-05T11:34:15;45.00;1.00
2611;DHT22;5612;51.134;17.058;2023-06-05T11:36:44;45.30;1.00
2611;DHT22;5612;51.134;17.058;2023-06-05T11:39:14;45.00;1.00
2611;DHT22;5612;51.134;17.058;2023-06-05T11:41:45;45.70;1.00
2611;DHT22;5612;51.134;17.058;2023-06-05T11:44:14;45.70;1.00
2611;DHT22;5612;51.134;17.058;2023-06-05T11:46:44;46.20;1.00
2611;DHT22;5612;51.134;17.058;2023-06-05T11:49:26;46.30;1.00
2611;DHT22;5612;51.134;17.058;2023-06-05T11:51:56;46.90;1.00
2611;DHT22;5612;51.134;17.058;2023-06-05T11:54:30;47.00;1.00
2611;DHT22;5612;51.134;17.058;2023-06-05T11:57:04;46.20;1.00
2611;DHT22;5612;51.134;17.058;2023-06-05T11:59:38;44.40;1.00
2611;DHT22;5612;51.134;17.058;2023-06-05T12:02:07;43.90;1.00
2611;DHT22;5612;51.134;17.058;2023-06-05T12:04:39;43.30;1.00
2611;DHT22;5612;51.134;17.058;2023-06-05T12:07:10;43.70;1.00
2611;DHT22;5612;51.134;17.058;2023-06-05T12:09:40;43.40;1.00
2611;DHT22;5612;51.134;17.058;2023-06-05T12:12:20;43.50;1.00
2611;DHT22;5612;51.134;17.058;2023-06-05T12:14:50;43.70;1.00
2611;DHT22;5612;51.134;17.058;2023-06-05T12:17:22;43.90;1.00
2611;DHT22;5612;51.134;17.058;2023-06-05T12:19:53;43.30;1.00
2611;DHT22;5612;51.134;17.058;2023-06-05T12:22:22;42.90;1.00
2611;DHT22;5612;51.134;17.058;2023-06-05T12:24:50;42.60;1.00
2611;DHT22;5612;51.134;17.058;2023-06-05T12:27:29;43.40;1.00
2611;DHT22;5612;51.134;17.058;2023-06-05T12:30:01;43.90;1.00
2611;DHT22;5612;51.134;17.058;2023-06-05T12:32:31;44.10;1.00
2611;DHT22;5612;51.134;17.058;2023-06-05T12:35:00;44.20;1.00
2611;DHT22;5612;51.134;17.058;2023-06-05T12:37:34;44.10;1.00
2611;DHT22;5612;51.134;17.058;2023-06-05T12:40:06;43.80;1.00
2611;DHT22;5612;51.134;17.058;2023-06-05T12:42:40;44.50;1.00
2611;DHT22;5612;51.134;17.058;2023-06-05T12:45:12;44.70;1.00
2611;DHT22;5612;51.134;17.058;2023-06-05T12:47:41;44.50;1.00
2611;DHT22;5612;51.134;17.058;2023-06-05T12:50:11;45.30;1.00
2611;DHT22;5612;51.134;17.058;2023-06-05T12:52:41;45.30;1.00
2611;DHT22;5612;51.134;17.058;2023-06-05T12:55:10;45.60;1.00
2611;DHT22;5612;51.134;17.058;2023-06-05T12:57:40;46.00;1.00
2611;DHT22;5612;51.134;17.058;2023-06-05T13:00:13;45.50;1.00
2611;DHT22;5612;51.134;17.058;2023-06-05T13:02:45;44.80;1.00
2611;DHT22;5612;51.134;17.058;2023-06-05T13:05:15;44.10;1.00
2611;DHT22;5612;51.134;17.058;2023-06-05T13:07:44;43.10;1.00
2611;DHT22;5612;51.134;17.058;2023-06-05T13:10:13;43.00;1.00
2611;DHT22;5612;51.134;17.058;2023-06-05T13:12:43;42.40;1.00
2611;DHT22;5612;51.134;17.058;2023-06-05T13:15:13;41.90;99.90
2611;DHT22;5612;51.134;17.058;2023-06-05T13:17:41;41.70;99.90
2611;DHT22;5612;51.134;17.058;2023-06-05T13:20:11;41.50;99.90
2611;DHT22;5612;51.134;17.058;2023-06-05T13:22:40;40.90;99.90
2611;DHT22;5612;51.134;17.058;2023-06-05T13:25:09;40.70;99.90
2611;DHT22;5612;51.134;17.058;2023-06-05T13:27:39;40.90;99.90
2611;DHT22;5612;51.134;17.058;2023-06-05T13:30:10;41.50;99.90
2611;DHT22;5612;51.134;17.058;2023-06-05T13:32:40;41.30;99.90
2611;DHT22;5612;51.134;17.058;2023-06-05T13:35:13;40.30;99.90
2611;DHT22;5612;51.134;17.058;2023-06-05T13:37:41;40.10;99.90
2611;DHT22;5612;51.134;17.058;2023-06-05T13:40:12;40.30;99.90
2611;DHT22;5612;51.134;17.058;2023-06-05T13:42:42;40.80;99.90
2611;DHT22;5612;51.134;17.058;2023-06-05T13:45:13;40.30;99.90
2611;DHT22;5612;51.134;17.058;2023-06-05T13:47:42;40.50;99.90
2611;DHT22;5612;51.134;17.058;2023-06-05T13:50:11;40.10;99.90
2611;DHT22;5612;51.134;17.058;2023-06-05T13:52:39;40.70;99.90
2611;DHT22;5612;51.134;17.058;2023-06-05T13:55:09;41.00;99.90
2611;DHT22;5612;51.134;17.058;2023-06-05T13:57:37;41.50;99.90
2611;DHT22;5612;51.134;17.058;2023-06-05T14:00:09;41.90;99.90
2611;DHT22;5612;51.134;17.058;2023-06-05T14:02:40;41.50;99.90
2611;DHT22;5612;51.134;17.058;2023-06-05T14:05:10;40.90;1.00
2611;DHT22;5612;51.134;17.058;2023-06-05T14:07:40;40.40;99.90
2611;DHT22;5612;51.134;17.058;2023-06-05T14:10:17;40.50;99.90
2611;DHT22;5612;51.134;17.058;2023-06-05T14:12:46;40.50;99.90
2611;DHT22;5612;51.134;17.058;2023-06-05T14:15:15;39.90;99.90
2611;DHT22;5612;51.134;17.058;2023-06-05T14:17:48;39.10;99.90
2611;DHT22;5612;51.134;17.058;2023-06-05T14:20:18;38.10;99.90
2611;DHT22;5612;51.134;17.058;2023-06-05T14:22:46;37.80;99.90
2611;DHT22;5612;51.134;17.058;2023-06-05T14:25:15;37.50;99.90
2611;DHT22;5612;51.134;17.058;2023-06-05T14:27:44;37.30;99.90
2611;DHT22;5612;51.134;17.058;2023-06-05T14:30:14;37.00;99.90
2611;DHT22;5612;51.134;17.058;2023-06-05T14:32:46;36.60;99.90
2611;DHT22;5612;51.134;17.058;2023-06-05T14:35:15;36.20;99.90
2611;DHT22;5612;51.134;17.058;2023-06-05T14:37:46;36.30;99.90
2611;DHT22;5612;51.134;17.058;2023-06-05T14:40:15;36.30;99.90
2611;DHT22;5612;51.134;17.058;2023-06-05T14:42:44;36.70;99.90
2611;DHT22;5612;51.134;17.058;2023-06-05T14:45:12;36.70;99.90
2611;DHT22;5612;51.134;17.058;2023-06-05T14:47:41;36.90;99.90
2611;DHT22;5612;51.134;17.058;2023-06-05T14:50:13;36.40;99.90
2611;DHT22;5612;51.134;17.058;2023-06-05T14:52:42;36.00;99.90
2611;DHT22;5612;51.134;17.058;2023-06-05T14:55:11;36.00;99.90
2611;DHT22;5612;51.134;17.058;2023-06-05T14:57:40;35.20;99.90
2611;DHT22;5612;51.134;17.058;2023-06-05T15:00:11;34.70;99.90
2611;DHT22;5612;51.134;17.058;2023-06-05T15:02:40;34.30;99.90
2611;DHT22;5612;51.134;17.058;2023-06-05T15:05:09;34.20;99.90
2611;DHT22;5612;51.134;17.058;2023-06-05T15:07:41;33.90;99.90
2611;DHT22;5612;51.134;17.058;2023-06-05T15:10:11;33.50;99.90
2611;DHT22;5612;51.134;17.058;2023-06-05T15:12:45;33.10;99.90
2611;DHT22;5612;51.134;17.058;2023-06-05T15:15:14;32.80;99.90
2611;DHT22;5612;51.134;17.058;2023-06-05T15:17:50;32.80;99.90
2611;DHT22;5612;51.134;17.058;2023-06-05T15:20:22;32.80;99.90
2611;DHT22;5612;51.134;17.058;2023-06-05T15:22:55;32.80;99.90
2611;DHT22;5612;51.134;17.058;2023-06-05T15:25:42;32.80;99.90
2611;DHT22;5612;51.134;17.058;2023-06-05T15:28:11;32.50;99.90
2611;DHT22;5612;51.134;17.058;2023-06-05T15:30:43;32.40;99.90
2611;DHT22;5612;51.134;17.058;2023-06-05T15:33:14;32.30;99.90
2611;DHT22;5612;51.134;17.058;2023-06-05T15:35:44;31.80;99.90
2611;DHT22;5612;51.134;17.058;2023-06-05T15:38:14;31.80;99.90
2611;DHT22;5612;51.134;17.058;2023-06-05T15:40:44;31.40;99.90
2611;DHT22;5612;51.134;17.058;2023-06-05T15:43:13;31.20;99.90
2611;DHT22;5612;51.134;17.058;2023-06-05T15:45:43;30.90;99.90
2611;DHT22;5612;51.134;17.058;2023-06-05T15:48:12;30.70;99.90
2611;DHT22;5612;51.134;17.058;2023-06-05T15:50:43;30.70;99.90
2611;DHT22;5612;51.134;17.058;2023-06-05T15:53:15;30.60;99.90
2611;DHT22;5612;51.134;17.058;2023-06-05T15:55:44;30.80;99.90
2611;DHT22;5612;51.134;17.058;2023-06-05T15:58:13;31.10;99.90
2611;DHT22;5612;51.134;17.058;2023-06-05T16:00:55;30.90;99.90
2611;DHT22;5612;51.134;17.058;2023-06-05T16:03:49;30.60;99.90
2611;DHT22;5612;51.134;17.058;2023-06-05T16:06:20;30.70;99.90
2611;DHT22;5612;51.134;17.058;2023-06-05T16:08:59;30.60;99.90
2611;DHT22;5612;51.134;17.058;2023-06-05T16:11:38;30.40;99.90
2611;DHT22;5612;51.134;17.058;2023-06-05T16:14:07;30.30;99.90
2611;DHT22;5612;51.134;17.058;2023-06-05T16:16:38;30.20;99.90
2611;DHT22;5612;51.134;17.058;2023-06-05T16:19:07;30.10;99.90
2611;DHT22;5612;51.134;17.058;2023-06-05T16:21:37;30.00;99.90
2611;DHT22;5612;51.134;17.058;2023-06-05T16:24:08;29.80;99.90